ENHV/HVG METAR and TAF weather

Enter ICAO airport designator
Station Type Date Time Source
ENHV METAR 2020/01/21 20:50 UTC NOAA

ENHV 212050Z 36023KT 5000 -SNRA FEW024 BKN036 100/M04 Q0988


Station Type Date Time Source
ENHV Decoded METAR 2020/01/21 20:50 UTC NOAA

Honningsvag / Valan, Norway (ENHV) 71-01N 025-59E 14M
Jan 21, 2020 - 03:50 PM EST / 2020.01.21 2050 UTC
Wind: from the N (360 degrees) at 26 MPH (23 KT):0
Visibility: 3 mile(s):0
Sky conditions: mostly cloudy
Weather: light snow, rain
Pressure (altimeter): 29.18 in. Hg (0988 hPa)
ob: ENHV 212050Z 36023KT 5000 -SNRA FEW024 BKN036 100/M04 Q0988
cycle: 21

Station Type Date Time Source
ENHV TAF UTC NOAA

Error!

Example: see airport list